sensor_id;sensor_type;location;lat;lon;timestamp;P1;durP1;ratioP1;P2;durP2;ratioP2
50483;SDS011;36409;52.168;20.878;2023-04-01T00:01:55;18.73;;;10.67;;
50483;SDS011;36409;52.168;20.878;2023-04-01T00:04:24;17.00;;;10.90;;
50483;SDS011;36409;52.168;20.878;2023-04-01T00:06:54;16.93;;;9.97;;
50483;SDS011;36409;52.168;20.878;2023-04-01T00:09:25;19.47;;;11.50;;
50483;SDS011;36409;52.168;20.878;2023-04-01T00:11:57;18.40;;;11.13;;
50483;SDS011;36409;52.168;20.878;2023-04-01T00:14:26;17.13;;;11.60;;
50483;SDS011;36409;52.168;20.878;2023-04-01T00:16:56;20.13;;;12.47;;
50483;SDS011;36409;52.168;20.878;2023-04-01T00:19:26;18.17;;;10.83;;
50483;SDS011;36409;52.168;20.878;2023-04-01T00:21:55;16.93;;;11.23;;
50483;SDS011;36409;52.168;20.878;2023-04-01T00:24:25;16.07;;;11.10;;
50483;SDS011;36409;52.168;20.878;2023-04-01T00:26:55;22.27;;;11.50;;
50483;SDS011;36409;52.168;20.878;2023-04-01T00:29:26;15.57;;;10.40;;
50483;SDS011;36409;52.168;20.878;2023-04-01T00:31:57;18.10;;;10.82;;
50483;SDS011;36409;52.168;20.878;2023-04-01T00:34:28;19.20;;;10.35;;
50483;SDS011;36409;52.168;20.878;2023-04-01T00:36:56;18.87;;;10.57;;
50483;SDS011;36409;52.168;20.878;2023-04-01T00:39:26;14.73;;;10.50;;
50483;SDS011;36409;52.168;20.878;2023-04-01T00:41:57;20.37;;;12.77;;
50483;SDS011;36409;52.168;20.878;2023-04-01T00:44:27;20.37;;;12.47;;
50483;SDS011;36409;52.168;20.878;2023-04-01T00:46:58;17.43;;;12.30;;
50483;SDS011;36409;52.168;20.878;2023-04-01T00:49:28;19.97;;;12.80;;
50483;SDS011;36409;52.168;20.878;2023-04-01T00:52:02;17.75;;;12.85;;
50483;SDS011;36409;52.168;20.878;2023-04-01T00:54:33;19.90;;;12.57;;
50483;SDS011;36409;52.168;20.878;2023-04-01T00:57:05;24.77;;;13.17;;
50483;SDS011;36409;52.168;20.878;2023-04-01T00:59:39;18.87;;;12.47;;
50483;SDS011;36409;52.168;20.878;2023-04-01T01:04:40;21.03;;;13.03;;
50483;SDS011;36409;52.168;20.878;2023-04-01T01:07:14;20.93;;;13.37;;
50483;SDS011;36409;52.168;20.878;2023-04-01T01:09:59;19.23;;;13.50;;
50483;SDS011;36409;52.168;20.878;2023-04-01T01:12:37;20.50;;;14.47;;
50483;SDS011;36409;52.168;20.878;2023-04-01T01:15:13;23.37;;;14.50;;
50483;SDS011;36409;52.168;20.878;2023-04-01T01:17:50;22.23;;;13.30;;
50483;SDS011;36409;52.168;20.878;2023-04-01T01:20:42;25.77;;;14.73;;
50483;SDS011;36409;52.168;20.878;2023-04-01T01:23:39;22.73;;;14.37;;
50483;SDS011;36409;52.168;20.878;2023-04-01T01:26:30;20.53;;;14.07;;
50483;SDS011;36409;52.168;20.878;2023-04-01T01:29:11;25.65;;;15.15;;
50483;SDS011;36409;52.168;20.878;2023-04-01T01:31:46;23.93;;;15.03;;
50483;SDS011;36409;52.168;20.878;2023-04-01T01:34:28;26.77;;;16.23;;
50483;SDS011;36409;52.168;20.878;2023-04-01T01:37:05;27.97;;;16.60;;
50483;SDS011;36409;52.168;20.878;2023-04-01T01:39:38;25.83;;;16.43;;
50483;SDS011;36409;52.168;20.878;2023-04-01T01:42:13;26.37;;;17.60;;
50483;SDS011;36409;52.168;20.878;2023-04-01T01:44:46;29.33;;;17.67;;
50483;SDS011;36409;52.168;20.878;2023-04-01T01:47:17;24.97;;;15.43;;
50483;SDS011;36409;52.168;20.878;2023-04-01T01:49:49;25.30;;;16.20;;
50483;SDS011;36409;52.168;20.878;2023-04-01T01:52:21;25.13;;;17.60;;
50483;SDS011;36409;52.168;20.878;2023-04-01T01:54:57;21.53;;;15.50;;
50483;SDS011;36409;52.168;20.878;2023-04-01T01:57:34;22.00;;;15.77;;
50483;SDS011;36409;52.168;20.878;2023-04-01T02:00:15;24.23;;;16.50;;
50483;SDS011;36409;52.168;20.878;2023-04-01T02:02:46;25.90;;;17.57;;
50483;SDS011;36409;52.168;20.878;2023-04-01T02:05:18;28.30;;;17.43;;
50483;SDS011;36409;52.168;20.878;2023-04-01T02:07:55;22.97;;;15.60;;
50483;SDS011;36409;52.168;20.878;2023-04-01T02:10:30;31.57;;;16.77;;
50483;SDS011;36409;52.168;20.878;2023-04-01T02:13:05;26.50;;;16.90;;
50483;SDS011;36409;52.168;20.878;2023-04-01T02:15:42;24.57;;;15.53;;
50483;SDS011;36409;52.168;20.878;2023-04-01T02:18:16;25.17;;;16.50;;
50483;SDS011;36409;52.168;20.878;2023-04-01T02:20:49;26.00;;;17.00;;
50483;SDS011;36409;52.168;20.878;2023-04-01T02:23:20;30.13;;;17.20;;
50483;SDS011;36409;52.168;20.878;2023-04-01T02:25:51;27.47;;;17.47;;
50483;SDS011;36409;52.168;20.878;2023-04-01T02:28:21;29.77;;;16.87;;
50483;SDS011;36409;52.168;20.878;2023-04-01T02:30:53;25.10;;;16.70;;
50483;SDS011;36409;52.168;20.878;2023-04-01T02:33:23;25.00;;;16.97;;
50483;SDS011;36409;52.168;20.878;2023-04-01T02:35:55;25.43;;;16.60;;
50483;SDS011;36409;52.168;20.878;2023-04-01T02:38:26;24.80;;;16.40;;
50483;SDS011;36409;52.168;20.878;2023-04-01T02:40:58;26.70;;;17.13;;
50483;SDS011;36409;52.168;20.878;2023-04-01T02:43:28;26.50;;;16.93;;
50483;SDS011;36409;52.168;20.878;2023-04-01T02:45:57;25.77;;;18.03;;
50483;SDS011;36409;52.168;20.878;2023-04-01T02:48:27;26.20;;;18.33;;
50483;SDS011;36409;52.168;20.878;2023-04-01T02:50:57;28.50;;;18.10;;
50483;SDS011;36409;52.168;20.878;2023-04-01T02:53:27;31.13;;;18.63;;
50483;SDS011;36409;52.168;20.878;2023-04-01T02:55:57;27.97;;;18.70;;
50483;SDS011;36409;52.168;20.878;2023-04-01T02:58:26;31.77;;;19.67;;
50483;SDS011;36409;52.168;20.878;2023-04-01T03:00:55;26.50;;;19.60;;
50483;SDS011;36409;52.168;20.878;2023-04-01T03:03:26;25.50;;;18.57;;
50483;SDS011;36409;52.168;20.878;2023-04-01T03:05:56;29.13;;;18.87;;
50483;SDS011;36409;52.168;20.878;2023-04-01T03:08:27;29.23;;;18.77;;
50483;SDS011;36409;52.168;20.878;2023-04-01T03:10:56;29.17;;;18.77;;
50483;SDS011;36409;52.168;20.878;2023-04-01T03:13:27;25.77;;;18.17;;
50483;SDS011;36409;52.168;20.878;2023-04-01T03:15:57;25.30;;;17.30;;
50483;SDS011;36409;52.168;20.878;2023-04-01T03:18:27;28.77;;;18.40;;
50483;SDS011;36409;52.168;20.878;2023-04-01T03:20:57;27.90;;;18.90;;
50483;SDS011;36409;52.168;20.878;2023-04-01T03:23:39;28.97;;;18.03;;
50483;SDS011;36409;52.168;20.878;2023-04-01T03:26:09;32.30;;;20.10;;
50483;SDS011;36409;52.168;20.878;2023-04-01T03:28:38;26.97;;;18.87;;
50483;SDS011;36409;52.168;20.878;2023-04-01T03:31:07;24.07;;;18.50;;
50483;SDS011;36409;52.168;20.878;2023-04-01T03:33:41;27.10;;;19.05;;
50483;SDS011;36409;52.168;20.878;2023-04-01T03:36:10;25.83;;;17.93;;
50483;SDS011;36409;52.168;20.878;2023-04-01T03:38:40;28.00;;;19.70;;
50483;SDS011;36409;52.168;20.878;2023-04-01T03:41:12;26.27;;;18.23;;
50483;SDS011;36409;52.168;20.878;2023-04-01T03:43:43;30.30;;;18.43;;
50483;SDS011;36409;52.168;20.878;2023-04-01T03:46:19;28.10;;;19.77;;
50483;SDS011;36409;52.168;20.878;2023-04-01T03:48:55;26.10;;;18.73;;
50483;SDS011;36409;52.168;20.878;2023-04-01T03:51:26;27.60;;;17.67;;
50483;SDS011;36409;52.168;20.878;2023-04-01T03:53:56;28.43;;;18.97;;
50483;SDS011;36409;52.168;20.878;2023-04-01T03:56:27;27.97;;;18.47;;
50483;SDS011;36409;52.168;20.878;2023-04-01T03:58:56;28.33;;;17.93;;
50483;SDS011;36409;52.168;20.878;2023-04-01T04:01:27;26.05;;;18.45;;
50483;SDS011;36409;52.168;20.878;2023-04-01T04:03:59;24.40;;;16.97;;
50483;SDS011;36409;52.168;20.878;2023-04-01T04:06:28;26.77;;;16.33;;
50483;SDS011;36409;52.168;20.878;2023-04-01T04:08:58;27.80;;;18.17;;
50483;SDS011;36409;52.168;20.878;2023-04-01T04:11:27;23.80;;;16.15;;
50483;SDS011;36409;52.168;20.878;2023-04-01T04:13:58;27.20;;;17.30;;
50483;SDS011;36409;52.168;20.878;2023-04-01T04:16:27;23.83;;;17.07;;
50483;SDS011;36409;52.168;20.878;2023-04-01T04:19:02;22.37;;;15.57;;
50483;SDS011;36409;52.168;20.878;2023-04-01T04:21:31;23.93;;;16.33;;
50483;SDS011;36409;52.168;20.878;2023-04-01T04:24:01;21.00;;;15.80;;
50483;SDS011;36409;52.168;20.878;2023-04-01T04:26:47;24.50;;;15.77;;
50483;SDS011;36409;52.168;20.878;2023-04-01T04:29:16;20.77;;;13.90;;
50483;SDS011;36409;52.168;20.878;2023-04-01T04:31:46;21.70;;;14.93;;
50483;SDS011;36409;52.168;20.878;2023-04-01T04:34:15;23.87;;;15.67;;
50483;SDS011;36409;52.168;20.878;2023-04-01T04:36:45;20.10;;;14.17;;
50483;SDS011;36409;52.168;20.878;2023-04-01T04:39:16;27.00;;;14.90;;
50483;SDS011;36409;52.168;20.878;2023-04-01T04:41:46;19.77;;;14.20;;
50483;SDS011;36409;52.168;20.878;2023-04-01T04:44:15;19.53;;;14.20;;
50483;SDS011;36409;52.168;20.878;2023-04-01T04:46:45;21.17;;;15.13;;
50483;SDS011;36409;52.168;20.878;2023-04-01T04:49:15;21.00;;;13.47;;
50483;SDS011;36409;52.168;20.878;2023-04-01T04:51:44;18.73;;;13.43;;
50483;SDS011;36409;52.168;20.878;2023-04-01T04:54:15;19.50;;;12.93;;
50483;SDS011;36409;52.168;20.878;2023-04-01T04:56:56;19.03;;;12.90;;
50483;SDS011;36409;52.168;20.878;2023-04-01T04:59:27;19.43;;;12.43;;
50483;SDS011;36409;52.168;20.878;2023-04-01T05:02:16;15.90;;;10.93;;
50483;SDS011;36409;52.168;20.878;2023-04-01T05:04:45;16.20;;;11.90;;
50483;SDS011;36409;52.168;20.878;2023-04-01T05:07:15;16.97;;;12.27;;
50483;SDS011;36409;52.168;20.878;2023-04-01T05:09:44;15.80;;;11.07;;
50483;SDS011;36409;52.168;20.878;2023-04-01T05:12:14;15.30;;;11.33;;
50483;SDS011;36409;52.168;20.878;2023-04-01T05:14:56;18.00;;;10.97;;
50483;SDS011;36409;52.168;20.878;2023-04-01T05:17:27;16.07;;;11.30;;
50483;SDS011;36409;52.168;20.878;2023-04-01T05:19:57;16.00;;;10.73;;
50483;SDS011;36409;52.168;20.878;2023-04-01T05:22:30;14.33;;;10.67;;
50483;SDS011;36409;52.168;20.878;2023-04-01T05:25:00;13.63;;;9.93;;
50483;SDS011;36409;52.168;20.878;2023-04-01T05:27:29;15.77;;;10.10;;
50483;SDS011;36409;52.168;20.878;2023-04-01T05:30:01;16.43;;;9.03;;
50483;SDS011;36409;52.168;20.878;2023-04-01T05:32:54;13.95;;;9.65;;
50483;SDS011;36409;52.168;20.878;2023-04-01T05:35:25;13.10;;;9.47;;
50483;SDS011;36409;52.168;20.878;2023-04-01T05:37:54;13.00;;;8.97;;
50483;SDS011;36409;52.168;20.878;2023-04-01T05:40:23;13.87;;;9.87;;
50483;SDS011;36409;52.168;20.878;2023-04-01T05:42:54;14.20;;;9.67;;
50483;SDS011;36409;52.168;20.878;2023-04-01T05:45:23;13.50;;;10.40;;
50483;SDS011;36409;52.168;20.878;2023-04-01T05:48:04;18.07;;;10.77;;
50483;SDS011;36409;52.168;20.878;2023-04-01T05:50:37;16.47;;;11.17;;
50483;SDS011;36409;52.168;20.878;2023-04-01T05:53:10;16.80;;;10.97;;
50483;SDS011;36409;52.168;20.878;2023-04-01T05:55:42;13.87;;;10.90;;
50483;SDS011;36409;52.168;20.878;2023-04-01T05:58:11;16.13;;;11.67;;
50483;SDS011;36409;52.168;20.878;2023-04-01T06:00:41;16.37;;;12.53;;
50483;SDS011;36409;52.168;20.878;2023-04-01T06:03:12;16.73;;;12.83;;
50483;SDS011;36409;52.168;20.878;2023-04-01T06:05:43;17.67;;;13.13;;
50483;SDS011;36409;52.168;20.878;2023-04-01T06:08:22;18.03;;;12.70;;
50483;SDS011;36409;52.168;20.878;2023-04-01T06:10:55;19.53;;;13.40;;
50483;SDS011;36409;52.168;20.878;2023-04-01T06:13:43;19.47;;;14.67;;
50483;SDS011;36409;52.168;20.878;2023-04-01T06:16:29;23.60;;;15.47;;
50483;SDS011;36409;52.168;20.878;2023-04-01T06:19:09;20.47;;;15.90;;
50483;SDS011;36409;52.168;20.878;2023-04-01T06:22:05;21.30;;;16.50;;
50483;SDS011;36409;52.168;20.878;2023-04-01T06:24:51;20.40;;;15.93;;
50483;SDS011;36409;52.168;20.878;2023-04-01T06:27:52;20.90;;;16.70;;
50483;SDS011;36409;52.168;20.878;2023-04-01T06:30:39;27.43;;;17.17;;
50483;SDS011;36409;52.168;20.878;2023-04-01T06:33:18;23.77;;;18.03;;
50483;SDS011;36409;52.168;20.878;2023-04-01T06:36:04;25.37;;;17.60;;
50483;SDS011;36409;52.168;20.878;2023-04-01T06:38:49;22.80;;;17.83;;
50483;SDS011;36409;52.168;20.878;2023-04-01T06:41:45;24.47;;;17.93;;
50483;SDS011;36409;52.168;20.878;2023-04-01T06:44:39;23.60;;;18.90;;
50483;SDS011;36409;52.168;20.878;2023-04-01T06:47:44;26.50;;;18.37;;
50483;SDS011;36409;52.168;20.878;2023-04-01T06:50:47;27.17;;;19.30;;
50483;SDS011;36409;52.168;20.878;2023-04-01T06:53:42;23.63;;;18.67;;
50483;SDS011;36409;52.168;20.878;2023-04-01T06:56:40;22.70;;;18.07;;
50483;SDS011;36409;52.168;20.878;2023-04-01T06:59:26;26.90;;;20.13;;
50483;SDS011;36409;52.168;20.878;2023-04-01T07:01:58;24.40;;;19.95;;
50483;SDS011;36409;52.168;20.878;2023-04-01T07:04:33;27.10;;;20.00;;
50483;SDS011;36409;52.168;20.878;2023-04-01T07:07:08;27.80;;;20.75;;
50483;SDS011;36409;52.168;20.878;2023-04-01T07:09:55;26.77;;;19.57;;
50483;SDS011;36409;52.168;20.878;2023-04-01T07:12:33;26.47;;;20.80;;
50483;SDS011;36409;52.168;20.878;2023-04-01T07:15:30;27.57;;;20.60;;
50483;SDS011;36409;52.168;20.878;2023-04-01T07:18:05;26.27;;;20.67;;
50483;SDS011;36409;52.168;20.878;2023-04-01T07:20:39;27.73;;;20.60;;
50483;SDS011;36409;52.168;20.878;2023-04-01T07:23:10;23.63;;;20.27;;
50483;SDS011;36409;52.168;20.878;2023-04-01T07:25:53;30.00;;;21.97;;
50483;SDS011;36409;52.168;20.878;2023-04-01T07:28:32;26.73;;;20.93;;
50483;SDS011;36409;52.168;20.878;2023-04-01T07:31:40;26.07;;;21.17;;
50483;SDS011;36409;52.168;20.878;2023-04-01T07:34:31;26.30;;;21.70;;
50483;SDS011;36409;52.168;20.878;2023-04-01T07:37:10;28.03;;;21.70;;
50483;SDS011;36409;52.168;20.878;2023-04-01T07:39:45;30.90;;;22.00;;
50483;SDS011;36409;52.168;20.878;2023-04-01T07:42:31;27.27;;;21.93;;
50483;SDS011;36409;52.168;20.878;2023-04-01T07:45:13;28.27;;;23.40;;
50483;SDS011;36409;52.168;20.878;2023-04-01T07:47:57;40.63;;;26.23;;
50483;SDS011;36409;52.168;20.878;2023-04-01T07:50:44;33.87;;;26.07;;
50483;SDS011;36409;52.168;20.878;2023-04-01T07:53:25;37.73;;;26.10;;
50483;SDS011;36409;52.168;20.878;2023-04-01T07:56:02;32.83;;;24.30;;
50483;SDS011;36409;52.168;20.878;2023-04-01T07:58:43;33.00;;;25.25;;
50483;SDS011;36409;52.168;20.878;2023-04-01T08:01:43;39.50;;;28.33;;
50483;SDS011;36409;52.168;20.878;2023-04-01T08:04:25;31.70;;;24.57;;
50483;SDS011;36409;52.168;20.878;2023-04-01T08:07:06;33.27;;;25.10;;
50483;SDS011;36409;52.168;20.878;2023-04-01T08:09:47;37.00;;;26.03;;
50483;SDS011;36409;52.168;20.878;2023-04-01T08:12:45;33.63;;;25.73;;
50483;SDS011;36409;52.168;20.878;2023-04-01T08:15:44;36.30;;;26.13;;
50483;SDS011;36409;52.168;20.878;2023-04-01T08:18:41;31.60;;;24.27;;
50483;SDS011;36409;52.168;20.878;2023-04-01T08:21:16;30.93;;;22.27;;
50483;SDS011;36409;52.168;20.878;2023-04-01T08:23:52;30.07;;;22.43;;
50483;SDS011;36409;52.168;20.878;2023-04-01T08:26:34;34.13;;;24.20;;
50483;SDS011;36409;52.168;20.878;2023-04-01T08:29:08;24.40;;;18.77;;
50483;SDS011;36409;52.168;20.878;2023-04-01T08:31:45;26.60;;;20.27;;
50483;SDS011;36409;52.168;20.878;2023-04-01T08:34:21;23.67;;;17.00;;
50483;SDS011;36409;52.168;20.878;2023-04-01T08:36:56;24.55;;;19.65;;
50483;SDS011;36409;52.168;20.878;2023-04-01T08:39:32;25.03;;;19.17;;
50483;SDS011;36409;52.168;20.878;2023-04-01T08:45:11;21.43;;;15.70;;
50483;SDS011;36409;52.168;20.878;2023-04-01T08:47:58;20.90;;;14.30;;
50483;SDS011;36409;52.168;20.878;2023-04-01T08:50:47;20.70;;;14.10;;
50483;SDS011;36409;52.168;20.878;2023-04-01T08:53:43;17.50;;;12.77;;
50483;SDS011;36409;52.168;20.878;2023-04-01T08:56:31;16.00;;;11.70;;
50483;SDS011;36409;52.168;20.878;2023-04-01T08:59:15;18.67;;;12.17;;
50483;SDS011;36409;52.168;20.878;2023-04-01T09:02:05;17.80;;;12.70;;
50483;SDS011;36409;52.168;20.878;2023-04-01T09:05:20;17.93;;;13.20;;
50483;SDS011;36409;52.168;20.878;2023-04-01T09:08:10;19.40;;;13.40;;
50483;SDS011;36409;52.168;20.878;2023-04-01T09:11:00;19.53;;;15.33;;
50483;SDS011;36409;52.168;20.878;2023-04-01T09:14:08;19.17;;;15.60;;
50483;SDS011;36409;52.168;20.878;2023-04-01T09:17:17;18.00;;;12.60;;
50483;SDS011;36409;52.168;20.878;2023-04-01T09:23:02;16.53;;;12.50;;
50483;SDS011;36409;52.168;20.878;2023-04-01T09:25:47;14.87;;;11.07;;
50483;SDS011;36409;52.168;20.878;2023-04-01T09:28:28;10.00;;;7.40;;
50483;SDS011;36409;52.168;20.878;2023-04-01T09:31:17;9.00;;;6.40;;
50483;SDS011;36409;52.168;20.878;2023-04-01T09:37:41;13.10;;;8.00;;
50483;SDS011;36409;52.168;20.878;2023-04-01T09:40:30;12.10;;;8.90;;
50483;SDS011;36409;52.168;20.878;2023-04-01T09:43:22;12.20;;;7.27;;
50483;SDS011;36409;52.168;20.878;2023-04-01T09:46:14;10.83;;;6.43;;
50483;SDS011;36409;52.168;20.878;2023-04-01T09:52:29;8.20;;;5.20;;
50483;SDS011;36409;52.168;20.878;2023-04-01T09:55:28;8.53;;;5.43;;
50483;SDS011;36409;52.168;20.878;2023-04-01T09:58:40;9.37;;;5.10;;
50483;SDS011;36409;52.168;20.878;2023-04-01T10:02:17;7.83;;;5.03;;
50483;SDS011;36409;52.168;20.878;2023-04-01T10:08:42;8.07;;;5.73;;
50483;SDS011;36409;52.168;20.878;2023-04-01T10:14:38;7.87;;;5.63;;
50483;SDS011;36409;52.168;20.878;2023-04-01T10:20:43;7.10;;;4.30;;
50483;SDS011;36409;52.168;20.878;2023-04-01T10:46:23;5.80;;;3.10;;
50483;SDS011;36409;52.168;20.878;2023-04-01T10:58:46;5.17;;;3.33;;
50483;SDS011;36409;52.168;20.878;2023-04-01T11:11:56;8.10;;;5.70;;
50483;SDS011;36409;52.168;20.878;2023-04-01T11:15:07;9.33;;;6.40;;
50483;SDS011;36409;52.168;20.878;2023-04-01T11:24:47;11.30;;;8.77;;
50483;SDS011;36409;52.168;20.878;2023-04-01T11:27:50;12.33;;;9.20;;
50483;SDS011;36409;52.168;20.878;2023-04-01T11:30:44;11.87;;;9.23;;
50483;SDS011;36409;52.168;20.878;2023-04-01T11:33:31;20.47;;;10.30;;
50483;SDS011;36409;52.168;20.878;2023-04-01T11:36:21;11.47;;;9.07;;
50483;SDS011;36409;52.168;20.878;2023-04-01T11:39:10;12.73;;;8.30;;
50483;SDS011;36409;52.168;20.878;2023-04-01T11:42:10;12.30;;;9.20;;
50483;SDS011;36409;52.168;20.878;2023-04-01T11:44:58;10.80;;;8.10;;
50483;SDS011;36409;52.168;20.878;2023-04-01T11:47:58;12.23;;;8.03;;
50483;SDS011;36409;52.168;20.878;2023-04-01T11:50:55;10.43;;;7.83;;
50483;SDS011;36409;52.168;20.878;2023-04-01T11:53:44;9.13;;;6.60;;
50483;SDS011;36409;52.168;20.878;2023-04-01T11:56:38;9.07;;;6.70;;
50483;SDS011;36409;52.168;20.878;2023-04-01T11:59:40;9.07;;;6.20;;
50483;SDS011;36409;52.168;20.878;2023-04-01T12:02:31;6.90;;;4.95;;
50483;SDS011;36409;52.168;20.878;2023-04-01T12:05:20;9.20;;;6.07;;
50483;SDS011;36409;52.168;20.878;2023-04-01T12:08:04;7.67;;;5.30;;
50483;SDS011;36409;52.168;20.878;2023-04-01T12:10:46;10.03;;;6.43;;
50483;SDS011;36409;52.168;20.878;2023-04-01T12:13:30;7.00;;;5.00;;
50483;SDS011;36409;52.168;20.878;2023-04-01T12:16:15;9.60;;;6.53;;
50483;SDS011;36409;52.168;20.878;2023-04-01T12:19:03;9.47;;;6.50;;
50483;SDS011;36409;52.168;20.878;2023-04-01T12:21:48;8.93;;;6.10;;
50483;SDS011;36409;52.168;20.878;2023-04-01T12:24:46;7.00;;;4.57;;
50483;SDS011;36409;52.168;20.878;2023-04-01T12:27:26;9.80;;;5.30;;
50483;SDS011;36409;52.168;20.878;2023-04-01T12:30:24;9.50;;;6.30;;
50483;SDS011;36409;52.168;20.878;2023-04-01T12:33:18;7.53;;;5.40;;
50483;SDS011;36409;52.168;20.878;2023-04-01T12:36:16;8.00;;;5.83;;
50483;SDS011;36409;52.168;20.878;2023-04-01T12:39:01;6.70;;;5.00;;
50483;SDS011;36409;52.168;20.878;2023-04-01T12:41:51;6.37;;;4.57;;
50483;SDS011;36409;52.168;20.878;2023-04-01T12:44:31;7.40;;;4.87;;
50483;SDS011;36409;52.168;20.878;2023-04-01T12:47:36;9.43;;;5.10;;
50483;SDS011;36409;52.168;20.878;2023-04-01T12:50:34;8.60;;;5.57;;
50483;SDS011;36409;52.168;20.878;2023-04-01T12:53:35;7.00;;;4.95;;
50483;SDS011;36409;52.168;20.878;2023-04-01T12:56:17;6.97;;;5.13;;
50483;SDS011;36409;52.168;20.878;2023-04-01T12:59:10;10.10;;;5.93;;
50483;SDS011;36409;52.168;20.878;2023-04-01T13:02:09;6.30;;;5.17;;
50483;SDS011;36409;52.168;20.878;2023-04-01T13:05:06;8.57;;;5.50;;
50483;SDS011;36409;52.168;20.878;2023-04-01T13:07:58;7.00;;;4.70;;
50483;SDS011;36409;52.168;20.878;2023-04-01T13:10:41;6.77;;;4.27;;
50483;SDS011;36409;52.168;20.878;2023-04-01T13:13:34;17.23;;;9.33;;
50483;SDS011;36409;52.168;20.878;2023-04-01T13:16:27;9.93;;;6.43;;
50483;SDS011;36409;52.168;20.878;2023-04-01T13:19:06;9.80;;;6.47;;
50483;SDS011;36409;52.168;20.878;2023-04-01T13:21:49;7.73;;;5.60;;
50483;SDS011;36409;52.168;20.878;2023-04-01T13:24:35;8.20;;;5.73;;
50483;SDS011;36409;52.168;20.878;2023-04-01T13:27:18;10.63;;;5.63;;
50483;SDS011;36409;52.168;20.878;2023-04-01T13:30:02;9.07;;;6.20;;
50483;SDS011;36409;52.168;20.878;2023-04-01T13:32:48;7.83;;;5.40;;
50483;SDS011;36409;52.168;20.878;2023-04-01T13:35:30;6.33;;;3.73;;
50483;SDS011;36409;52.168;20.878;2023-04-01T13:38:32;6.73;;;3.40;;
50483;SDS011;36409;52.168;20.878;2023-04-01T13:41:21;5.27;;;2.70;;
50483;SDS011;36409;52.168;20.878;2023-04-01T13:44:09;6.43;;;2.97;;
50483;SDS011;36409;52.168;20.878;2023-04-01T13:49:52;6.45;;;2.90;;
50483;SDS011;36409;52.168;20.878;2023-04-01T13:52:56;5.83;;;2.63;;
50483;SDS011;36409;52.168;20.878;2023-04-01T13:58:31;5.30;;;2.37;;
50483;SDS011;36409;52.168;20.878;2023-04-01T14:01:37;5.80;;;2.17;;
50483;SDS011;36409;52.168;20.878;2023-04-01T14:04:32;12.73;;;2.50;;
50483;SDS011;36409;52.168;20.878;2023-04-01T14:07:31;3.93;;;2.20;;
50483;SDS011;36409;52.168;20.878;2023-04-01T14:10:21;3.07;;;1.63;;
50483;SDS011;36409;52.168;20.878;2023-04-01T14:13:03;3.73;;;2.20;;
50483;SDS011;36409;52.168;20.878;2023-04-01T14:15:46;3.83;;;2.23;;
50483;SDS011;36409;52.168;20.878;2023-04-01T14:18:36;4.67;;;2.37;;
50483;SDS011;36409;52.168;20.878;2023-04-01T14:21:29;4.17;;;2.03;;
50483;SDS011;36409;52.168;20.878;2023-04-01T14:27:22;4.08;;;2.35;;
50483;SDS011;36409;52.168;20.878;2023-04-01T14:30:14;6.50;;;2.83;;
50483;SDS011;36409;52.168;20.878;2023-04-01T14:33:00;5.77;;;2.90;;
50483;SDS011;36409;52.168;20.878;2023-04-01T14:35:39;6.15;;;2.80;;
50483;SDS011;36409;52.168;20.878;2023-04-01T14:38:31;5.70;;;3.13;;
50483;SDS011;36409;52.168;20.878;2023-04-01T14:41:19;4.53;;;2.43;;
50483;SDS011;36409;52.168;20.878;2023-04-01T14:44:09;6.67;;;2.57;;
50483;SDS011;36409;52.168;20.878;2023-04-01T14:46:53;4.53;;;2.80;;
50483;SDS011;36409;52.168;20.878;2023-04-01T14:49:39;5.13;;;2.80;;
50483;SDS011;36409;52.168;20.878;2023-04-01T14:52:17;10.03;;;3.10;;
50483;SDS011;36409;52.168;20.878;2023-04-01T14:55:01;10.40;;;2.90;;
50483;SDS011;36409;52.168;20.878;2023-04-01T14:57:58;4.53;;;2.70;;
50483;SDS011;36409;52.168;20.878;2023-04-01T15:00:41;8.17;;;2.30;;
50483;SDS011;36409;52.168;20.878;2023-04-01T15:03:22;4.40;;;2.43;;
50483;SDS011;36409;52.168;20.878;2023-04-01T15:06:14;6.77;;;2.33;;
50483;SDS011;36409;52.168;20.878;2023-04-01T15:09:05;11.83;;;3.00;;
50483;SDS011;36409;52.168;20.878;2023-04-01T15:11:51;4.87;;;2.22;;
50483;SDS011;36409;52.168;20.878;2023-04-01T15:14:38;7.67;;;2.77;;
50483;SDS011;36409;52.168;20.878;2023-04-01T15:17:27;4.67;;;2.47;;
50483;SDS011;36409;52.168;20.878;2023-04-01T15:20:17;5.87;;;2.80;;
50483;SDS011;36409;52.168;20.878;2023-04-01T15:23:02;6.60;;;2.90;;
50483;SDS011;36409;52.168;20.878;2023-04-01T15:25:50;4.40;;;2.47;;
50483;SDS011;36409;52.168;20.878;2023-04-01T15:28:36;4.97;;;2.90;;
50483;SDS011;36409;52.168;20.878;2023-04-01T15:31:16;5.90;;;3.43;;
50483;SDS011;36409;52.168;20.878;2023-04-01T15:34:07;4.90;;;2.85;;
50483;SDS011;36409;52.168;20.878;2023-04-01T15:36:52;6.27;;;2.70;;
50483;SDS011;36409;52.168;20.878;2023-04-01T15:39:31;5.23;;;2.77;;
50483;SDS011;36409;52.168;20.878;2023-04-01T15:42:18;6.10;;;2.93;;
50483;SDS011;36409;52.168;20.878;2023-04-01T15:45:14;4.33;;;2.70;;
50483;SDS011;36409;52.168;20.878;2023-04-01T15:48:10;3.67;;;2.37;;
50483;SDS011;36409;52.168;20.878;2023-04-01T15:50:56;4.80;;;2.80;;
50483;SDS011;36409;52.168;20.878;2023-04-01T15:56:36;4.90;;;2.57;;
50483;SDS011;36409;52.168;20.878;2023-04-01T15:59:20;6.63;;;2.93;;
50483;SDS011;36409;52.168;20.878;2023-04-01T16:02:10;5.50;;;3.23;;
50483;SDS011;36409;52.168;20.878;2023-04-01T16:04:52;7.63;;;2.90;;
50483;SDS011;36409;52.168;20.878;2023-04-01T16:16:31;7.27;;;2.63;;
50483;SDS011;36409;52.168;20.878;2023-04-01T16:19:22;5.13;;;2.60;;
50483;SDS011;36409;52.168;20.878;2023-04-01T16:22:19;4.67;;;2.87;;
50483;SDS011;36409;52.168;20.878;2023-04-01T16:25:07;4.97;;;3.13;;
50483;SDS011;36409;52.168;20.878;2023-04-01T16:27:52;5.13;;;2.87;;
50483;SDS011;36409;52.168;20.878;2023-04-01T16:30:35;6.50;;;3.40;;
50483;SDS011;36409;52.168;20.878;2023-04-01T16:33:11;6.93;;;2.83;;
50483;SDS011;36409;52.168;20.878;2023-04-01T16:35:54;5.10;;;2.60;;
50483;SDS011;36409;52.168;20.878;2023-04-01T16:38:35;6.17;;;2.97;;
50483;SDS011;36409;52.168;20.878;2023-04-01T16:41:14;5.23;;;2.60;;
50483;SDS011;36409;52.168;20.878;2023-04-01T16:43:55;5.23;;;3.00;;
50483;SDS011;36409;52.168;20.878;2023-04-01T16:46:40;4.70;;;2.70;;
50483;SDS011;36409;52.168;20.878;2023-04-01T16:49:22;5.73;;;2.73;;
50483;SDS011;36409;52.168;20.878;2023-04-01T16:52:13;4.53;;;2.63;;
50483;SDS011;36409;52.168;20.878;2023-04-01T16:54:50;6.07;;;3.37;;
50483;SDS011;36409;52.168;20.878;2023-04-01T16:57:35;5.93;;;3.10;;
50483;SDS011;36409;52.168;20.878;2023-04-01T17:00:21;4.58;;;2.95;;
50483;SDS011;36409;52.168;20.878;2023-04-01T17:03:02;5.20;;;3.13;;
50483;SDS011;36409;52.168;20.878;2023-04-01T17:05:50;5.77;;;3.17;;
50483;SDS011;36409;52.168;20.878;2023-04-01T17:08:39;6.90;;;3.33;;
50483;SDS011;36409;52.168;20.878;2023-04-01T17:11:23;6.70;;;3.33;;
50483;SDS011;36409;52.168;20.878;2023-04-01T17:14:03;5.87;;;3.20;;
50483;SDS011;36409;52.168;20.878;2023-04-01T17:16:54;6.83;;;3.43;;
50483;SDS011;36409;52.168;20.878;2023-04-01T17:22:37;6.27;;;3.73;;